sensor_id;sensor_type;location;lat;lon;timestamp;P1;durP1;ratioP1;P2;durP2;ratioP2
52458;SDS011;38372;52.902;6.024;2023-05-07T00:00:42;7.78;;;3.03;;
52458;SDS011;38372;52.902;6.024;2023-05-07T00:03:08;7.80;;;2.65;;
52458;SDS011;38372;52.902;6.024;2023-05-07T00:05:34;5.75;;;3.13;;
52458;SDS011;38372;52.902;6.024;2023-05-07T00:08:01;5.28;;;2.90;;
52458;SDS011;38372;52.902;6.024;2023-05-07T00:10:26;7.45;;;2.97;;
52458;SDS011;38372;52.902;6.024;2023-05-07T00:12:52;5.95;;;2.63;;
52458;SDS011;38372;52.902;6.024;2023-05-07T00:15:18;5.28;;;2.92;;
52458;SDS011;38372;52.902;6.024;2023-05-07T00:17:44;9.10;;;3.85;;
52458;SDS011;38372;52.902;6.024;2023-05-07T00:20:10;4.82;;;2.50;;
52458;SDS011;38372;52.902;6.024;2023-05-07T00:22:36;9.82;;;3.75;;
52458;SDS011;38372;52.902;6.024;2023-05-07T00:25:01;8.10;;;3.88;;
52458;SDS011;38372;52.902;6.024;2023-05-07T00:27:27;7.40;;;2.80;;
52458;SDS011;38372;52.902;6.024;2023-05-07T00:29:53;6.45;;;3.05;;
52458;SDS011;38372;52.902;6.024;2023-05-07T00:32:19;4.80;;;2.88;;
52458;SDS011;38372;52.902;6.024;2023-05-07T00:34:45;4.88;;;2.60;;
52458;SDS011;38372;52.902;6.024;2023-05-07T00:37:11;7.47;;;3.17;;
52458;SDS011;38372;52.902;6.024;2023-05-07T00:39:37;7.03;;;3.47;;
52458;SDS011;38372;52.902;6.024;2023-05-07T00:42:03;7.53;;;3.47;;
52458;SDS011;38372;52.902;6.024;2023-05-07T00:44:29;6.53;;;3.38;;
52458;SDS011;38372;52.902;6.024;2023-05-07T00:46:55;7.18;;;3.20;;
52458;SDS011;38372;52.902;6.024;2023-05-07T00:49:22;9.20;;;3.50;;
52458;SDS011;38372;52.902;6.024;2023-05-07T00:51:58;6.40;;;2.67;;
52458;SDS011;38372;52.902;6.024;2023-05-07T00:54:25;7.15;;;3.40;;
52458;SDS011;38372;52.902;6.024;2023-05-07T00:56:51;5.05;;;3.00;;
52458;SDS011;38372;52.902;6.024;2023-05-07T00:59:17;6.32;;;2.78;;
52458;SDS011;38372;52.902;6.024;2023-05-07T01:01:43;5.80;;;2.70;;
52458;SDS011;38372;52.902;6.024;2023-05-07T01:04:10;8.73;;;3.35;;
52458;SDS011;38372;52.902;6.024;2023-05-07T01:06:36;9.52;;;3.70;;
52458;SDS011;38372;52.902;6.024;2023-05-07T01:09:02;6.00;;;3.08;;
52458;SDS011;38372;52.902;6.024;2023-05-07T01:11:29;5.20;;;2.95;;
52458;SDS011;38372;52.902;6.024;2023-05-07T01:13:55;6.68;;;3.28;;
52458;SDS011;38372;52.902;6.024;2023-05-07T01:16:24;6.90;;;3.38;;
52458;SDS011;38372;52.902;6.024;2023-05-07T01:18:50;7.22;;;2.88;;
52458;SDS011;38372;52.902;6.024;2023-05-07T01:21:16;7.90;;;3.47;;
52458;SDS011;38372;52.902;6.024;2023-05-07T01:23:44;6.68;;;3.08;;
52458;SDS011;38372;52.902;6.024;2023-05-07T01:26:10;7.35;;;3.30;;
52458;SDS011;38372;52.902;6.024;2023-05-07T01:28:36;6.60;;;3.25;;
52458;SDS011;38372;52.902;6.024;2023-05-07T01:31:02;8.13;;;3.88;;
52458;SDS011;38372;52.902;6.024;2023-05-07T01:33:29;5.68;;;2.92;;
52458;SDS011;38372;52.902;6.024;2023-05-07T01:35:58;6.05;;;3.28;;
52458;SDS011;38372;52.902;6.024;2023-05-07T01:38:29;7.78;;;3.05;;
52458;SDS011;38372;52.902;6.024;2023-05-07T01:40:55;4.70;;;2.47;;
52458;SDS011;38372;52.902;6.024;2023-05-07T01:43:22;6.43;;;3.30;;
52458;SDS011;38372;52.902;6.024;2023-05-07T01:45:48;7.40;;;3.00;;
52458;SDS011;38372;52.902;6.024;2023-05-07T01:48:14;6.78;;;2.88;;
52458;SDS011;38372;52.902;6.024;2023-05-07T01:50:44;5.97;;;2.90;;
52458;SDS011;38372;52.902;6.024;2023-05-07T01:53:10;5.00;;;2.47;;
52458;SDS011;38372;52.902;6.024;2023-05-07T01:55:36;4.35;;;2.35;;
52458;SDS011;38372;52.902;6.024;2023-05-07T01:58:05;7.27;;;3.17;;
52458;SDS011;38372;52.902;6.024;2023-05-07T02:00:31;6.40;;;2.75;;
52458;SDS011;38372;52.902;6.024;2023-05-07T02:02:57;5.72;;;2.60;;
52458;SDS011;38372;52.902;6.024;2023-05-07T02:05:23;6.57;;;2.88;;
52458;SDS011;38372;52.902;6.024;2023-05-07T02:07:49;7.40;;;3.05;;
52458;SDS011;38372;52.902;6.024;2023-05-07T02:10:15;6.15;;;2.85;;
52458;SDS011;38372;52.902;6.024;2023-05-07T02:12:40;6.75;;;2.63;;
52458;SDS011;38372;52.902;6.024;2023-05-07T02:15:08;4.97;;;2.65;;
52458;SDS011;38372;52.902;6.024;2023-05-07T02:17:34;5.38;;;2.85;;
52458;SDS011;38372;52.902;6.024;2023-05-07T02:20:00;8.20;;;2.67;;
52458;SDS011;38372;52.902;6.024;2023-05-07T02:22:26;3.70;;;2.20;;
52458;SDS011;38372;52.902;6.024;2023-05-07T02:24:51;6.50;;;2.67;;
52458;SDS011;38372;52.902;6.024;2023-05-07T02:27:17;8.82;;;3.10;;
52458;SDS011;38372;52.902;6.024;2023-05-07T02:29:43;4.82;;;2.55;;
52458;SDS011;38372;52.902;6.024;2023-05-07T02:32:09;4.72;;;2.33;;
52458;SDS011;38372;52.902;6.024;2023-05-07T02:34:35;6.32;;;3.45;;
52458;SDS011;38372;52.902;6.024;2023-05-07T02:37:01;5.75;;;2.80;;
52458;SDS011;38372;52.902;6.024;2023-05-07T02:39:27;4.78;;;2.97;;
52458;SDS011;38372;52.902;6.024;2023-05-07T02:41:52;5.10;;;3.20;;
52458;SDS011;38372;52.902;6.024;2023-05-07T02:44:18;6.10;;;3.08;;
52458;SDS011;38372;52.902;6.024;2023-05-07T02:46:44;6.63;;;3.30;;
52458;SDS011;38372;52.902;6.024;2023-05-07T02:49:10;7.10;;;2.95;;
52458;SDS011;38372;52.902;6.024;2023-05-07T02:51:35;5.35;;;2.88;;
52458;SDS011;38372;52.902;6.024;2023-05-07T02:54:01;7.07;;;3.53;;
52458;SDS011;38372;52.902;6.024;2023-05-07T02:56:27;6.25;;;2.97;;
52458;SDS011;38372;52.902;6.024;2023-05-07T02:58:53;8.05;;;3.72;;
52458;SDS011;38372;52.902;6.024;2023-05-07T03:01:19;9.13;;;3.45;;
52458;SDS011;38372;52.902;6.024;2023-05-07T03:03:45;7.85;;;3.65;;
52458;SDS011;38372;52.902;6.024;2023-05-07T03:06:11;5.05;;;3.28;;
52458;SDS011;38372;52.902;6.024;2023-05-07T03:08:37;6.18;;;3.17;;
52458;SDS011;38372;52.902;6.024;2023-05-07T03:11:03;9.00;;;4.35;;
52458;SDS011;38372;52.902;6.024;2023-05-07T03:13:29;8.57;;;3.90;;
52458;SDS011;38372;52.902;6.024;2023-05-07T03:15:55;9.20;;;3.63;;
52458;SDS011;38372;52.902;6.024;2023-05-07T03:18:21;6.30;;;3.47;;
52458;SDS011;38372;52.902;6.024;2023-05-07T03:20:47;7.95;;;3.83;;
52458;SDS011;38372;52.902;6.024;2023-05-07T03:23:13;7.95;;;4.28;;
52458;SDS011;38372;52.902;6.024;2023-05-07T03:25:39;8.25;;;4.50;;
52458;SDS011;38372;52.902;6.024;2023-05-07T03:28:05;10.93;;;4.05;;
52458;SDS011;38372;52.902;6.024;2023-05-07T03:30:31;6.78;;;4.20;;
52458;SDS011;38372;52.902;6.024;2023-05-07T03:32:58;6.50;;;3.58;;
52458;SDS011;38372;52.902;6.024;2023-05-07T03:35:23;9.93;;;4.35;;
52458;SDS011;38372;52.902;6.024;2023-05-07T03:37:49;10.30;;;3.72;;
52458;SDS011;38372;52.902;6.024;2023-05-07T03:40:15;7.70;;;3.70;;
52458;SDS011;38372;52.902;6.024;2023-05-07T03:42:41;7.15;;;3.63;;
52458;SDS011;38372;52.902;6.024;2023-05-07T03:45:07;8.35;;;4.18;;
52458;SDS011;38372;52.902;6.024;2023-05-07T03:47:33;9.68;;;4.18;;
52458;SDS011;38372;52.902;6.024;2023-05-07T03:49:59;9.40;;;4.28;;
52458;SDS011;38372;52.902;6.024;2023-05-07T03:52:25;6.97;;;4.00;;
52458;SDS011;38372;52.902;6.024;2023-05-07T03:54:52;8.30;;;4.25;;
52458;SDS011;38372;52.902;6.024;2023-05-07T03:57:18;7.00;;;3.95;;
52458;SDS011;38372;52.902;6.024;2023-05-07T03:59:44;9.75;;;5.32;;
52458;SDS011;38372;52.902;6.024;2023-05-07T04:02:10;8.18;;;4.00;;
52458;SDS011;38372;52.902;6.024;2023-05-07T04:04:36;14.60;;;5.65;;
52458;SDS011;38372;52.902;6.024;2023-05-07T04:07:02;8.40;;;4.60;;
52458;SDS011;38372;52.902;6.024;2023-05-07T04:09:28;10.57;;;4.80;;
52458;SDS011;38372;52.902;6.024;2023-05-07T04:11:54;7.93;;;4.28;;
52458;SDS011;38372;52.902;6.024;2023-05-07T04:14:19;9.27;;;4.25;;
52458;SDS011;38372;52.902;6.024;2023-05-07T04:16:45;13.98;;;4.63;;
52458;SDS011;38372;52.902;6.024;2023-05-07T04:19:11;10.05;;;4.22;;
52458;SDS011;38372;52.902;6.024;2023-05-07T04:21:37;13.45;;;4.30;;
52458;SDS011;38372;52.902;6.024;2023-05-07T04:24:03;8.93;;;4.30;;
52458;SDS011;38372;52.902;6.024;2023-05-07T04:26:29;12.32;;;5.32;;
52458;SDS011;38372;52.902;6.024;2023-05-07T04:28:55;10.05;;;4.05;;
52458;SDS011;38372;52.902;6.024;2023-05-07T04:31:21;12.82;;;4.03;;
52458;SDS011;38372;52.902;6.024;2023-05-07T04:33:47;10.98;;;4.53;;
52458;SDS011;38372;52.902;6.024;2023-05-07T04:36:13;9.20;;;4.68;;
52458;SDS011;38372;52.902;6.024;2023-05-07T04:38:39;8.07;;;4.10;;
52458;SDS011;38372;52.902;6.024;2023-05-07T04:41:05;10.57;;;4.50;;
52458;SDS011;38372;52.902;6.024;2023-05-07T04:43:31;8.98;;;4.47;;
52458;SDS011;38372;52.902;6.024;2023-05-07T04:45:57;7.20;;;4.32;;
52458;SDS011;38372;52.902;6.024;2023-05-07T04:48:23;9.35;;;5.05;;
52458;SDS011;38372;52.902;6.024;2023-05-07T04:50:50;11.52;;;4.97;;
52458;SDS011;38372;52.902;6.024;2023-05-07T04:53:16;10.43;;;4.68;;
52458;SDS011;38372;52.902;6.024;2023-05-07T04:55:42;9.30;;;4.70;;
52458;SDS011;38372;52.902;6.024;2023-05-07T04:58:10;10.40;;;4.78;;
52458;SDS011;38372;52.902;6.024;2023-05-07T05:00:36;7.32;;;4.22;;
52458;SDS011;38372;52.902;6.024;2023-05-07T05:03:03;11.48;;;4.22;;
52458;SDS011;38372;52.902;6.024;2023-05-07T05:05:30;13.85;;;5.95;;
52458;SDS011;38372;52.902;6.024;2023-05-07T05:07:56;9.30;;;4.90;;
52458;SDS011;38372;52.902;6.024;2023-05-07T05:10:22;11.85;;;5.82;;
52458;SDS011;38372;52.902;6.024;2023-05-07T05:12:47;9.85;;;4.97;;
52458;SDS011;38372;52.902;6.024;2023-05-07T05:15:13;8.85;;;4.07;;
52458;SDS011;38372;52.902;6.024;2023-05-07T05:17:39;10.02;;;5.25;;
52458;SDS011;38372;52.902;6.024;2023-05-07T05:20:05;9.85;;;5.65;;
52458;SDS011;38372;52.902;6.024;2023-05-07T05:22:32;10.85;;;5.05;;
52458;SDS011;38372;52.902;6.024;2023-05-07T05:24:58;12.00;;;4.95;;
52458;SDS011;38372;52.902;6.024;2023-05-07T05:27:23;13.23;;;5.38;;
52458;SDS011;38372;52.902;6.024;2023-05-07T05:29:49;11.25;;;5.05;;
52458;SDS011;38372;52.902;6.024;2023-05-07T05:32:15;10.15;;;5.80;;
52458;SDS011;38372;52.902;6.024;2023-05-07T05:34:41;16.33;;;8.30;;
52458;SDS011;38372;52.902;6.024;2023-05-07T05:37:07;15.10;;;6.55;;
52458;SDS011;38372;52.902;6.024;2023-05-07T05:39:33;14.25;;;5.93;;
52458;SDS011;38372;52.902;6.024;2023-05-07T05:41:58;11.05;;;6.07;;
52458;SDS011;38372;52.902;6.024;2023-05-07T05:44:24;10.77;;;5.32;;
52458;SDS011;38372;52.902;6.024;2023-05-07T05:46:50;10.70;;;5.45;;
52458;SDS011;38372;52.902;6.024;2023-05-07T05:49:16;12.05;;;5.28;;
52458;SDS011;38372;52.902;6.024;2023-05-07T05:51:42;12.18;;;5.40;;
52458;SDS011;38372;52.902;6.024;2023-05-07T05:54:08;16.00;;;6.60;;
52458;SDS011;38372;52.902;6.024;2023-05-07T05:56:34;15.18;;;5.95;;
52458;SDS011;38372;52.902;6.024;2023-05-07T05:59:01;14.05;;;5.18;;
52458;SDS011;38372;52.902;6.024;2023-05-07T06:01:27;8.73;;;4.70;;
52458;SDS011;38372;52.902;6.024;2023-05-07T06:03:53;11.20;;;6.40;;
52458;SDS011;38372;52.902;6.024;2023-05-07T06:06:19;12.05;;;5.75;;
52458;SDS011;38372;52.902;6.024;2023-05-07T06:08:45;12.38;;;5.13;;
52458;SDS011;38372;52.902;6.024;2023-05-07T06:11:10;10.20;;;4.82;;
52458;SDS011;38372;52.902;6.024;2023-05-07T06:13:36;13.73;;;5.40;;
52458;SDS011;38372;52.902;6.024;2023-05-07T06:16:02;10.18;;;4.65;;
52458;SDS011;38372;52.902;6.024;2023-05-07T06:18:28;11.93;;;5.38;;
52458;SDS011;38372;52.902;6.024;2023-05-07T06:20:54;11.68;;;5.93;;
52458;SDS011;38372;52.902;6.024;2023-05-07T06:23:20;20.40;;;5.97;;
52458;SDS011;38372;52.902;6.024;2023-05-07T06:25:50;8.18;;;4.68;;
52458;SDS011;38372;52.902;6.024;2023-05-07T06:28:16;8.52;;;3.97;;
52458;SDS011;38372;52.902;6.024;2023-05-07T06:30:42;13.30;;;5.68;;
52458;SDS011;38372;52.902;6.024;2023-05-07T06:33:08;11.50;;;5.40;;
52458;SDS011;38372;52.902;6.024;2023-05-07T06:35:34;9.98;;;4.80;;
52458;SDS011;38372;52.902;6.024;2023-05-07T06:38:00;10.88;;;5.22;;
52458;SDS011;38372;52.902;6.024;2023-05-07T06:40:26;10.48;;;4.50;;
52458;SDS011;38372;52.902;6.024;2023-05-07T06:42:52;12.18;;;5.43;;
52458;SDS011;38372;52.902;6.024;2023-05-07T06:45:19;11.30;;;4.97;;
52458;SDS011;38372;52.902;6.024;2023-05-07T06:47:45;11.88;;;5.03;;
52458;SDS011;38372;52.902;6.024;2023-05-07T06:50:11;12.77;;;5.28;;
52458;SDS011;38372;52.902;6.024;2023-05-07T06:52:37;9.55;;;4.57;;
52458;SDS011;38372;52.902;6.024;2023-05-07T06:55:03;10.57;;;4.13;;
52458;SDS011;38372;52.902;6.024;2023-05-07T06:57:29;9.32;;;4.65;;
52458;SDS011;38372;52.902;6.024;2023-05-07T06:59:54;11.73;;;5.35;;
52458;SDS011;38372;52.902;6.024;2023-05-07T07:02:21;10.20;;;4.43;;
52458;SDS011;38372;52.902;6.024;2023-05-07T07:04:46;14.02;;;6.65;;
52458;SDS011;38372;52.902;6.024;2023-05-07T07:07:12;11.02;;;5.28;;
52458;SDS011;38372;52.902;6.024;2023-05-07T07:09:38;11.32;;;5.47;;
52458;SDS011;38372;52.902;6.024;2023-05-07T07:12:04;9.88;;;4.57;;
52458;SDS011;38372;52.902;6.024;2023-05-07T07:14:30;10.10;;;5.35;;
52458;SDS011;38372;52.902;6.024;2023-05-07T07:16:56;11.15;;;5.03;;
52458;SDS011;38372;52.902;6.024;2023-05-07T07:19:22;10.13;;;5.32;;
52458;SDS011;38372;52.902;6.024;2023-05-07T07:21:47;15.57;;;6.20;;
52458;SDS011;38372;52.902;6.024;2023-05-07T07:24:14;10.73;;;5.40;;
52458;SDS011;38372;52.902;6.024;2023-05-07T07:26:44;12.07;;;5.07;;
52458;SDS011;38372;52.902;6.024;2023-05-07T07:29:10;12.98;;;5.57;;
52458;SDS011;38372;52.902;6.024;2023-05-07T07:31:36;12.60;;;5.05;;
52458;SDS011;38372;52.902;6.024;2023-05-07T07:34:01;7.10;;;4.20;;
52458;SDS011;38372;52.902;6.024;2023-05-07T07:36:27;8.82;;;4.65;;
52458;SDS011;38372;52.902;6.024;2023-05-07T07:38:53;8.55;;;4.88;;
52458;SDS011;38372;52.902;6.024;2023-05-07T07:41:19;5.97;;;4.07;;
52458;SDS011;38372;52.902;6.024;2023-05-07T07:43:45;11.05;;;4.57;;
52458;SDS011;38372;52.902;6.024;2023-05-07T07:46:12;10.23;;;5.07;;
52458;SDS011;38372;52.902;6.024;2023-05-07T07:48:38;12.43;;;5.22;;
52458;SDS011;38372;52.902;6.024;2023-05-07T07:51:03;9.25;;;5.05;;
52458;SDS011;38372;52.902;6.024;2023-05-07T07:53:29;10.35;;;5.95;;
52458;SDS011;38372;52.902;6.024;2023-05-07T07:55:56;11.52;;;5.72;;
52458;SDS011;38372;52.902;6.024;2023-05-07T07:58:26;12.65;;;6.35;;
52458;SDS011;38372;52.902;6.024;2023-05-07T08:00:52;10.48;;;4.90;;
52458;SDS011;38372;52.902;6.024;2023-05-07T08:03:19;10.15;;;5.53;;
52458;SDS011;38372;52.902;6.024;2023-05-07T08:05:45;12.27;;;5.68;;
52458;SDS011;38372;52.902;6.024;2023-05-07T08:08:11;12.82;;;4.70;;
52458;SDS011;38372;52.902;6.024;2023-05-07T08:10:37;13.60;;;5.40;;
52458;SDS011;38372;52.902;6.024;2023-05-07T08:13:04;9.77;;;5.32;;
52458;SDS011;38372;52.902;6.024;2023-05-07T08:15:31;12.48;;;4.80;;
52458;SDS011;38372;52.902;6.024;2023-05-07T08:17:57;13.23;;;6.28;;
52458;SDS011;38372;52.902;6.024;2023-05-07T08:20:25;13.73;;;4.75;;
52458;SDS011;38372;52.902;6.024;2023-05-07T08:22:51;9.35;;;4.30;;
52458;SDS011;38372;52.902;6.024;2023-05-07T08:25:17;12.98;;;5.55;;
52458;SDS011;38372;52.902;6.024;2023-05-07T08:27:42;13.68;;;5.68;;
52458;SDS011;38372;52.902;6.024;2023-05-07T08:30:10;11.95;;;4.95;;
52458;SDS011;38372;52.902;6.024;2023-05-07T08:32:36;11.88;;;5.20;;
52458;SDS011;38372;52.902;6.024;2023-05-07T08:35:02;8.63;;;5.05;;
52458;SDS011;38372;52.902;6.024;2023-05-07T08:37:28;12.68;;;6.13;;
52458;SDS011;38372;52.902;6.024;2023-05-07T08:39:54;9.75;;;5.25;;
52458;SDS011;38372;52.902;6.024;2023-05-07T08:42:20;14.02;;;5.97;;
52458;SDS011;38372;52.902;6.024;2023-05-07T08:44:48;12.23;;;6.53;;
52458;SDS011;38372;52.902;6.024;2023-05-07T08:47:18;7.20;;;5.32;;
52458;SDS011;38372;52.902;6.024;2023-05-07T08:49:44;9.45;;;5.10;;
52458;SDS011;38372;52.902;6.024;2023-05-07T08:52:11;9.27;;;4.30;;
52458;SDS011;38372;52.902;6.024;2023-05-07T08:54:37;11.02;;;4.93;;
52458;SDS011;38372;52.902;6.024;2023-05-07T08:57:04;10.73;;;5.18;;
52458;SDS011;38372;52.902;6.024;2023-05-07T08:59:30;9.68;;;5.40;;
52458;SDS011;38372;52.902;6.024;2023-05-07T09:01:55;8.68;;;4.60;;
52458;SDS011;38372;52.902;6.024;2023-05-07T09:04:21;9.20;;;5.30;;
52458;SDS011;38372;52.902;6.024;2023-05-07T09:06:47;8.85;;;5.25;;
52458;SDS011;38372;52.902;6.024;2023-05-07T09:09:16;12.23;;;6.47;;
52458;SDS011;38372;52.902;6.024;2023-05-07T09:11:45;9.68;;;4.60;;
52458;SDS011;38372;52.902;6.024;2023-05-07T09:14:11;8.98;;;4.80;;
52458;SDS011;38372;52.902;6.024;2023-05-07T09:16:38;7.80;;;4.32;;
52458;SDS011;38372;52.902;6.024;2023-05-07T09:19:04;10.02;;;5.05;;
52458;SDS011;38372;52.902;6.024;2023-05-07T09:21:29;12.95;;;5.55;;
52458;SDS011;38372;52.902;6.024;2023-05-07T09:23:55;11.23;;;5.43;;
52458;SDS011;38372;52.902;6.024;2023-05-07T09:26:21;8.90;;;4.32;;
52458;SDS011;38372;52.902;6.024;2023-05-07T09:28:48;13.23;;;5.60;;
52458;SDS011;38372;52.902;6.024;2023-05-07T09:31:14;11.50;;;5.22;;
52458;SDS011;38372;52.902;6.024;2023-05-07T09:33:40;9.65;;;5.32;;
52458;SDS011;38372;52.902;6.024;2023-05-07T09:36:06;9.77;;;6.05;;
52458;SDS011;38372;52.902;6.024;2023-05-07T09:38:33;9.77;;;5.47;;
52458;SDS011;38372;52.902;6.024;2023-05-07T09:41:04;8.98;;;4.40;;
52458;SDS011;38372;52.902;6.024;2023-05-07T09:43:35;10.88;;;5.25;;
52458;SDS011;38372;52.902;6.024;2023-05-07T09:46:02;12.15;;;5.18;;
52458;SDS011;38372;52.902;6.024;2023-05-07T09:48:30;12.77;;;5.65;;
52458;SDS011;38372;52.902;6.024;2023-05-07T09:51:01;13.20;;;5.80;;
52458;SDS011;38372;52.902;6.024;2023-05-07T09:53:29;10.77;;;4.60;;
52458;SDS011;38372;52.902;6.024;2023-05-07T09:55:56;8.93;;;4.80;;
52458;SDS011;38372;52.902;6.024;2023-05-07T09:58:23;8.95;;;5.28;;
52458;SDS011;38372;52.902;6.024;2023-05-07T10:00:50;13.52;;;5.53;;
52458;SDS011;38372;52.902;6.024;2023-05-07T10:03:17;15.27;;;6.78;;
52458;SDS011;38372;52.902;6.024;2023-05-07T10:05:46;10.75;;;5.45;;
52458;SDS011;38372;52.902;6.024;2023-05-07T10:08:12;8.70;;;5.65;;
52458;SDS011;38372;52.902;6.024;2023-05-07T10:10:41;10.57;;;5.68;;
52458;SDS011;38372;52.902;6.024;2023-05-07T10:13:08;10.50;;;4.55;;
52458;SDS011;38372;52.902;6.024;2023-05-07T10:15:36;11.82;;;6.88;;
52458;SDS011;38372;52.902;6.024;2023-05-07T10:18:05;12.68;;;6.15;;
52458;SDS011;38372;52.902;6.024;2023-05-07T10:20:32;7.88;;;4.70;;
52458;SDS011;38372;52.902;6.024;2023-05-07T10:22:59;11.95;;;4.82;;
52458;SDS011;38372;52.902;6.024;2023-05-07T10:25:31;10.73;;;5.97;;
52458;SDS011;38372;52.902;6.024;2023-05-07T10:28:07;15.80;;;5.90;;
52458;SDS011;38372;52.902;6.024;2023-05-07T10:33:22;11.02;;;6.30;;
52458;SDS011;38372;52.902;6.024;2023-05-07T10:35:52;10.43;;;5.95;;
52458;SDS011;38372;52.902;6.024;2023-05-07T10:38:24;9.90;;;4.93;;
52458;SDS011;38372;52.902;6.024;2023-05-07T10:40:50;8.52;;;4.05;;
52458;SDS011;38372;52.902;6.024;2023-05-07T10:43:16;13.38;;;5.90;;
52458;SDS011;38372;52.902;6.024;2023-05-07T10:45:42;9.15;;;4.63;;
52458;SDS011;38372;52.902;6.024;2023-05-07T10:50:41;9.77;;;4.90;;
52458;SDS011;38372;52.902;6.024;2023-05-07T10:58:34;9.88;;;5.50;;
52458;SDS011;38372;52.902;6.024;2023-05-07T11:01:02;9.57;;;4.50;;
52458;SDS011;38372;52.902;6.024;2023-05-07T11:03:28;9.15;;;5.20;;
52458;SDS011;38372;52.902;6.024;2023-05-07T11:06:14;8.93;;;4.90;;
52458;SDS011;38372;52.902;6.024;2023-05-07T11:08:54;10.90;;;5.35;;
52458;SDS011;38372;52.902;6.024;2023-05-07T11:12:05;11.38;;;5.25;;
52458;SDS011;38372;52.902;6.024;2023-05-07T11:14:13;9.95;;;5.03;;
52458;SDS011;38372;52.902;6.024;2023-05-07T11:17:03;9.70;;;4.60;;
52458;SDS011;38372;52.902;6.024;2023-05-07T11:25:01;11.55;;;5.05;;
52458;SDS011;38372;52.902;6.024;2023-05-07T11:27:27;9.23;;;4.80;;
52458;SDS011;38372;52.902;6.024;2023-05-07T11:29:54;8.02;;;4.82;;
52458;SDS011;38372;52.902;6.024;2023-05-07T11:32:25;9.00;;;4.57;;
52458;SDS011;38372;52.902;6.024;2023-05-07T11:34:53;7.75;;;4.50;;
52458;SDS011;38372;52.902;6.024;2023-05-07T11:37:20;9.80;;;4.45;;
52458;SDS011;38372;52.902;6.024;2023-05-07T11:39:47;11.35;;;5.18;;
52458;SDS011;38372;52.902;6.024;2023-05-07T11:42:27;9.80;;;4.97;;
52458;SDS011;38372;52.902;6.024;2023-05-07T11:44:56;11.13;;;5.80;;
52458;SDS011;38372;52.902;6.024;2023-05-07T11:47:23;8.32;;;4.93;;
52458;SDS011;38372;52.902;6.024;2023-05-07T11:49:53;12.00;;;5.90;;
52458;SDS011;38372;52.902;6.024;2023-05-07T11:52:21;9.45;;;5.10;;
52458;SDS011;38372;52.902;6.024;2023-05-07T11:54:52;8.10;;;4.25;;
52458;SDS011;38372;52.902;6.024;2023-05-07T11:57:19;7.93;;;5.00;;
52458;SDS011;38372;52.902;6.024;2023-05-07T11:59:46;7.57;;;4.07;;
52458;SDS011;38372;52.902;6.024;2023-05-07T12:02:15;9.25;;;5.20;;
52458;SDS011;38372;52.902;6.024;2023-05-07T12:04:42;9.68;;;5.40;;
52458;SDS011;38372;52.902;6.024;2023-05-07T12:07:11;8.85;;;4.57;;
52458;SDS011;38372;52.902;6.024;2023-05-07T12:09:39;11.73;;;4.28;;
52458;SDS011;38372;52.902;6.024;2023-05-07T12:12:05;8.60;;;3.97;;
52458;SDS011;38372;52.902;6.024;2023-05-07T12:14:31;10.75;;;4.93;;
52458;SDS011;38372;52.902;6.024;2023-05-07T12:16:58;8.55;;;4.68;;
52458;SDS011;38372;52.902;6.024;2023-05-07T12:19:28;7.20;;;4.20;;
52458;SDS011;38372;52.902;6.024;2023-05-07T12:21:55;8.77;;;4.90;;
52458;SDS011;38372;52.902;6.024;2023-05-07T12:24:22;9.82;;;4.75;;
52458;SDS011;38372;52.902;6.024;2023-05-07T12:26:48;8.75;;;4.10;;
52458;SDS011;38372;52.902;6.024;2023-05-07T12:29:14;8.38;;;4.22;;
52458;SDS011;38372;52.902;6.024;2023-05-07T12:31:43;7.72;;;4.10;;
52458;SDS011;38372;52.902;6.024;2023-05-07T12:34:10;7.60;;;4.65;;
52458;SDS011;38372;52.902;6.024;2023-05-07T12:36:37;7.25;;;4.30;;
52458;SDS011;38372;52.902;6.024;2023-05-07T12:39:07;7.28;;;4.25;;
52458;SDS011;38372;52.902;6.024;2023-05-07T12:44:21;8.95;;;4.43;;
52458;SDS011;38372;52.902;6.024;2023-05-07T12:49:14;8.55;;;3.83;;
52458;SDS011;38372;52.902;6.024;2023-05-07T12:51:40;8.63;;;3.92;;
52458;SDS011;38372;52.902;6.024;2023-05-07T12:54:06;7.20;;;3.92;;
52458;SDS011;38372;52.902;6.024;2023-05-07T12:56:35;6.80;;;3.97;;
52458;SDS011;38372;52.902;6.024;2023-05-07T13:01:31;8.27;;;4.20;;
52458;SDS011;38372;52.902;6.024;2023-05-07T13:04:02;5.70;;;3.47;;
52458;SDS011;38372;52.902;6.024;2023-05-07T13:06:29;7.53;;;3.95;;
52458;SDS011;38372;52.902;6.024;2023-05-07T13:08:56;6.95;;;3.17;;
52458;SDS011;38372;52.902;6.024;2023-05-07T13:11:22;8.13;;;3.80;;
52458;SDS011;38372;52.902;6.024;2023-05-07T13:13:48;11.20;;;4.63;;
52458;SDS011;38372;52.902;6.024;2023-05-07T13:16:13;7.35;;;3.78;;
52458;SDS011;38372;52.902;6.024;2023-05-07T13:18:39;6.63;;;3.53;;
52458;SDS011;38372;52.902;6.024;2023-05-07T13:21:06;7.88;;;4.10;;
52458;SDS011;38372;52.902;6.024;2023-05-07T13:23:31;7.78;;;3.83;;
52458;SDS011;38372;52.902;6.024;2023-05-07T13:25:57;7.28;;;3.45;;
52458;SDS011;38372;52.902;6.024;2023-05-07T13:28:23;10.43;;;4.88;;
52458;SDS011;38372;52.902;6.024;2023-05-07T13:30:50;7.50;;;3.70;;
52458;SDS011;38372;52.902;6.024;2023-05-07T13:33:17;5.45;;;3.53;;
52458;SDS011;38372;52.902;6.024;2023-05-07T13:35:43;7.28;;;4.32;;
52458;SDS011;38372;52.902;6.024;2023-05-07T13:38:09;6.70;;;3.55;;
52458;SDS011;38372;52.902;6.024;2023-05-07T13:40:35;6.43;;;3.78;;
52458;SDS011;38372;52.902;6.024;2023-05-07T13:43:01;7.82;;;3.65;;
52458;SDS011;38372;52.902;6.024;2023-05-07T13:45:27;5.93;;;3.55;;
52458;SDS011;38372;52.902;6.024;2023-05-07T13:47:56;5.40;;;3.28;;
52458;SDS011;38372;52.902;6.024;2023-05-07T13:50:23;8.13;;;3.38;;
52458;SDS011;38372;52.902;6.024;2023-05-07T13:52:49;5.97;;;3.38;;
52458;SDS011;38372;52.902;6.024;2023-05-07T13:55:17;7.80;;;3.60;;
52458;SDS011;38372;52.902;6.024;2023-05-07T13:57:44;6.07;;;3.38;;
52458;SDS011;38372;52.902;6.024;2023-05-07T14:00:10;6.65;;;3.08;;
52458;SDS011;38372;52.902;6.024;2023-05-07T14:02:37;7.03;;;4.18;;
52458;SDS011;38372;52.902;6.024;2023-05-07T14:05:02;5.55;;;3.28;;
52458;SDS011;38372;52.902;6.024;2023-05-07T14:07:29;5.47;;;2.78;;
52458;SDS011;38372;52.902;6.024;2023-05-07T14:09:54;6.45;;;3.05;;
52458;SDS011;38372;52.902;6.024;2023-05-07T14:12:21;7.22;;;3.63;;
52458;SDS011;38372;52.902;6.024;2023-05-07T14:14:47;5.78;;;3.50;;
52458;SDS011;38372;52.902;6.024;2023-05-07T14:17:15;8.45;;;4.45;;
52458;SDS011;38372;52.902;6.024;2023-05-07T14:19:43;7.33;;;3.77;;
52458;SDS011;38372;52.902;6.024;2023-05-07T14:22:09;4.93;;;2.88;;
52458;SDS011;38372;52.902;6.024;2023-05-07T14:24:35;5.80;;;3.13;;
52458;SDS011;38372;52.902;6.024;2023-05-07T14:27:01;7.43;;;4.47;;
52458;SDS011;38372;52.902;6.024;2023-05-07T14:29:27;6.53;;;3.83;;
52458;SDS011;38372;52.902;6.024;2023-05-07T14:31:53;8.45;;;4.25;;
52458;SDS011;38372;52.902;6.024;2023-05-07T14:34:19;6.32;;;3.13;;
52458;SDS011;38372;52.902;6.024;2023-05-07T14:36:45;5.47;;;3.05;;
52458;SDS011;38372;52.902;6.024;2023-05-07T14:39:11;5.40;;;2.80;;
52458;SDS011;38372;52.902;6.024;2023-05-07T14:41:37;5.30;;;3.17;;
52458;SDS011;38372;52.902;6.024;2023-05-07T14:44:02;6.43;;;3.25;;
52458;SDS011;38372;52.902;6.024;2023-05-07T14:46:29;7.13;;;3.63;;
52458;SDS011;38372;52.902;6.024;2023-05-07T14:48:56;5.43;;;3.40;;
52458;SDS011;38372;52.902;6.024;2023-05-07T14:51:22;9.23;;;4.00;;
52458;SDS011;38372;52.902;6.024;2023-05-07T14:53:49;4.95;;;3.35;;
52458;SDS011;38372;52.902;6.024;2023-05-07T14:56:15;6.32;;;3.33;;
52458;SDS011;38372;52.902;6.024;2023-05-07T14:58:42;5.47;;;3.42;;
52458;SDS011;38372;52.902;6.024;2023-05-07T15:01:08;6.07;;;3.50;;
52458;SDS011;38372;52.902;6.024;2023-05-07T15:03:34;7.15;;;3.70;;